Time;durP1;ratioP1;P1;durP2;ratioP2;P2;SDS_P1;SDS_P2;PMS_P1;PMS_P2;Temp;Humidity;BMP_temperature;BMP_pressure;BME280_temperature;BME280_humidity;BME280_pressure;Samples;Min_cycle;Max_cycle;Signal;HPM_P1;HPM_P2
2023/12/19 00:01:47;;;;;;;45.67;36.63;;;7.50;99.90;;;;;;5075563;28;20452;-79
2023/12/19 00:04:15;;;;;;;44.47;37.10;;;7.50;99.90;;;;;;5075856;28;21069;-79
2023/12/19 00:06:43;;;;;;;52.50;39.50;;;7.50;99.90;;;;;;5075054;28;20448;-79
2023/12/19 00:09:13;;;;;;;43.10;35.70;;;7.50;99.90;;;;;;5074918;28;20558;-79
2023/12/19 00:11:41;;;;;;;42.73;35.40;;;7.50;99.90;;;;;;5075181;28;20459;-79
2023/12/19 00:14:11;;;;;;;44.90;36.27;;;7.50;99.90;;;;;;5075132;28;20862;-80
2023/12/19 00:16:39;;;;;;;43.83;35.87;;;7.50;99.90;;;;;;5074775;28;20443;-80
2023/12/19 00:19:09;;;;;;;43.30;36.43;;;7.50;99.90;;;;;;5074816;28;20479;-79
2023/12/19 00:21:38;;;;;;;41.20;35.20;;;7.50;99.90;;;;;;5076679;28;20414;-79
2023/12/19 00:24:06;;;;;;;45.33;35.50;;;7.50;99.90;;;;;;5076183;28;20990;-79
2023/12/19 00:26:34;;;;;;;44.53;35.10;;;7.50;99.90;;;;;;5075024;28;20448;-79
2023/12/19 00:29:03;;;;;;;38.70;33.90;;;7.50;99.90;;;;;;5074857;28;20492;-79
2023/12/19 00:31:32;;;;;;;45.73;36.90;;;7.50;99.90;;;;;;5074463;28;20470;-80
2023/12/19 00:34:01;;;;;;;40.87;33.33;;;7.50;99.90;;;;;;5074338;28;20489;-79
2023/12/19 00:36:29;;;;;;;39.30;33.90;;;7.50;99.90;;;;;;5074598;28;20442;-82
2023/12/19 00:38:57;;;;;;;41.50;33.97;;;7.50;99.90;;;;;;5074437;28;20456;-81
2023/12/19 00:41:26;;;;;;;40.53;33.90;;;7.50;99.90;;;;;;5074357;28;20448;-79
2023/12/19 00:43:55;;;;;;;38.17;31.10;;;7.50;99.90;;;;;;5075066;28;20472;-82
2023/12/19 00:46:23;;;;;;;39.33;33.10;;;7.50;99.90;;;;;;5075450;28;20486;-81
2023/12/19 00:48:52;;;;;;;36.80;31.67;;;7.50;99.90;;;;;;5078760;28;20437;-81
2023/12/19 00:51:21;;;;;;;36.60;32.27;;;7.50;99.90;;;;;;5077165;28;20525;-80
2023/12/19 00:53:49;;;;;;;34.83;31.10;;;7.50;99.90;;;;;;5076139;28;20462;-79
2023/12/19 00:56:17;;;;;;;36.80;31.73;;;7.40;99.90;;;;;;5076414;28;20465;-82
2023/12/19 00:58:46;;;;;;;34.83;31.00;;;7.40;99.90;;;;;;5076119;28;20448;-80
2023/12/19 01:01:14;;;;;;;35.80;31.90;;;7.40;99.90;;;;;;5078023;28;20468;-80
2023/12/19 01:03:42;;;;;;;36.30;32.33;;;7.40;99.90;;;;;;5076589;28;20440;-81
2023/12/19 01:06:12;;;;;;;37.43;33.40;;;7.40;99.90;;;;;;5077256;28;20464;-80
2023/12/19 01:08:41;;;;;;;36.63;32.73;;;7.40;99.90;;;;;;5079440;28;20814;-80
2023/12/19 01:11:10;;;;;;;38.00;33.97;;;7.40;99.90;;;;;;5081369;28;21017;-80
2023/12/19 01:13:39;;;;;;;34.93;31.23;;;7.40;99.90;;;;;;5080202;28;20448;-80
2023/12/19 01:16:08;;;;;;;34.27;30.63;;;7.40;99.90;;;;;;5079723;28;20470;-80
2023/12/19 01:18:36;;;;;;;35.53;31.60;;;7.40;99.90;;;;;;5079734;28;20959;-80
2023/12/19 01:21:05;;;;;;;32.33;28.83;;;7.40;99.90;;;;;;5082672;28;20803;-81
2023/12/19 01:23:35;;;;;;;30.97;27.70;;;7.40;99.90;;;;;;5084808;28;20809;-80
2023/12/19 01:26:03;;;;;;;30.63;27.30;;;7.40;99.90;;;;;;5083305;28;20476;-80
2023/12/19 01:28:39;;;;;;;32.27;28.53;;;7.40;99.90;;;;;;5081605;28;20879;-80
2023/12/19 01:31:08;;;;;;;31.67;28.20;;;7.40;99.90;;;;;;5081111;28;20520;-81
2023/12/19 01:33:36;;;;;;;33.20;28.93;;;7.40;99.90;;;;;;5080255;28;20494;-80
2023/12/19 01:36:05;;;;;;;31.27;27.87;;;7.40;99.90;;;;;;5081679;28;20474;-79
2023/12/19 01:38:35;;;;;;;32.80;27.90;;;7.40;99.90;;;;;;5080462;28;20462;-80
2023/12/19 01:41:03;;;;;;;30.10;26.90;;;7.40;99.90;;;;;;5078333;28;20508;-81
2023/12/19 01:43:32;;;;;;;31.13;27.80;;;7.30;99.90;;;;;;5078850;28;20449;-81
2023/12/19 01:46:00;;;;;;;29.37;26.03;;;7.30;99.90;;;;;;5079365;28;20483;-80
2023/12/19 01:48:29;;;;;;;32.73;28.23;;;7.30;99.90;;;;;;5078798;28;20449;-79
2023/12/19 01:50:58;;;;;;;30.30;27.23;;;7.30;99.90;;;;;;5079781;28;20467;-79
2023/12/19 01:53:26;;;;;;;34.27;27.13;;;7.30;99.90;;;;;;5078533;28;20479;-79
2023/12/19 01:55:57;;;;;;;30.83;27.60;;;7.30;99.90;;;;;;5079457;28;20468;-81
2023/12/19 01:58:28;;;;;;;28.30;24.80;;;7.30;99.90;;;;;;5077988;28;20501;-79
2023/12/19 02:00:58;;;;;;;31.77;26.47;;;7.30;99.90;;;;;;5078832;28;20462;-80
2023/12/19 02:03:26;;;;;;;29.17;25.37;;;7.30;99.90;;;;;;5078481;28;20544;-82
2023/12/19 02:05:55;;;;;;;29.60;26.30;;;7.30;99.90;;;;;;5079577;28;20516;-79
2023/12/19 02:08:24;;;;;;;28.20;25.13;;;7.30;99.90;;;;;;5078823;28;20448;-79
2023/12/19 02:10:52;;;;;;;29.10;25.87;;;7.30;99.90;;;;;;5078600;28;20981;-80
2023/12/19 02:13:22;;;;;;;27.77;24.73;;;7.30;99.90;;;;;;5079344;28;20439;-81
2023/12/19 02:15:51;;;;;;;29.70;26.70;;;7.30;99.90;;;;;;5078009;28;20520;-80
2023/12/19 02:18:20;;;;;;;29.20;26.07;;;7.30;99.90;;;;;;5077004;28;20473;-79
2023/12/19 02:20:50;;;;;;;31.17;26.13;;;7.30;99.90;;;;;;5077400;28;20487;-79
2023/12/19 02:23:19;;;;;;;30.77;25.37;;;7.20;99.90;;;;;;5076988;28;20475;-79
2023/12/19 02:25:48;;;;;;;25.60;22.90;;;7.20;99.90;;;;;;5077439;28;20542;-79
2023/12/19 02:28:16;;;;;;;28.93;24.50;;;7.20;99.90;;;;;;5077181;28;20441;-79
2023/12/19 02:30:45;;;;;;;28.17;25.20;;;7.20;99.90;;;;;;5077332;28;20503;-81
2023/12/19 02:33:13;;;;;;;27.00;24.20;;;7.30;99.90;;;;;;5077127;28;20846;-81
2023/12/19 02:35:41;;;;;;;25.23;22.50;;;7.20;99.90;;;;;;5078151;28;20833;-81
2023/12/19 02:38:09;;;;;;;26.13;22.70;;;7.20;99.90;;;;;;5077217;28;20443;-80
2023/12/19 02:40:39;;;;;;;26.80;23.63;;;7.20;99.90;;;;;;5076737;28;20502;-80
2023/12/19 02:43:07;;;;;;;26.07;23.37;;;7.30;99.90;;;;;;5076845;28;20455;-79
2023/12/19 02:45:36;;;;;;;27.53;23.80;;;7.20;99.90;;;;;;5077672;28;20477;-80
2023/12/19 02:48:05;;;;;;;25.87;23.17;;;7.30;99.90;;;;;;5078127;28;20522;-79
2023/12/19 02:50:33;;;;;;;29.67;26.00;;;7.20;99.90;;;;;;5076367;28;20484;-82
2023/12/19 02:53:02;;;;;;;27.70;24.80;;;7.20;99.90;;;;;;5076302;28;20456;-80
2023/12/19 02:55:30;;;;;;;28.03;25.23;;;7.20;99.90;;;;;;5076404;28;20994;-79
2023/12/19 02:58:00;;;;;;;28.93;25.70;;;7.20;99.90;;;;;;5076274;28;20456;-80
2023/12/19 03:00:28;;;;;;;29.00;25.80;;;7.30;99.90;;;;;;5076068;28;20455;-80
2023/12/19 03:02:58;;;;;;;29.47;26.23;;;7.30;99.90;;;;;;5076126;28;20871;-80
2023/12/19 03:05:27;;;;;;;29.37;25.67;;;7.20;99.90;;;;;;5075714;28;20476;-81
2023/12/19 03:07:56;;;;;;;31.80;26.60;;;7.20;99.90;;;;;;5076592;28;20539;-80
2023/12/19 03:10:24;;;;;;;31.77;27.80;;;7.30;99.90;;;;;;5077414;28;20436;-78
2023/12/19 03:12:52;;;;;;;30.43;26.30;;;7.30;99.90;;;;;;5077795;28;20436;-79
2023/12/19 03:15:24;;;;;;;34.30;27.93;;;7.30;99.90;;;;;;5077980;28;20460;-80
2023/12/19 03:17:52;;;;;;;30.40;27.07;;;7.30;99.90;;;;;;5077938;28;20425;-79
2023/12/19 03:20:21;;;;;;;32.70;27.80;;;7.30;99.90;;;;;;5076824;28;20445;-81
2023/12/19 03:22:49;;;;;;;31.13;27.00;;;7.30;99.90;;;;;;5076758;28;20895;-79
2023/12/19 03:25:17;;;;;;;35.03;29.50;;;7.20;99.90;;;;;;5076062;28;20499;-79
2023/12/19 03:27:45;;;;;;;35.87;29.40;;;7.20;99.90;;;;;;5078082;28;20448;-81
2023/12/19 03:30:14;;;;;;;31.50;28.20;;;7.20;99.90;;;;;;5075143;28;20459;-80
2023/12/19 03:32:44;;;;;;;33.50;29.77;;;7.20;99.90;;;;;;5076477;28;20514;-81
2023/12/19 03:35:13;;;;;;;34.70;30.20;;;7.20;99.90;;;;;;5077363;28;20562;-80
2023/12/19 03:37:41;;;;;;;33.40;29.70;;;7.20;99.90;;;;;;5077171;28;20529;-80
2023/12/19 03:40:10;;;;;;;33.70;27.40;;;7.20;99.90;;;;;;5076444;28;20458;-79
2023/12/19 03:42:39;;;;;;;30.47;27.17;;;7.20;99.90;;;;;;5076887;28;20441;-80
2023/12/19 03:45:08;;;;;;;31.40;27.07;;;7.20;99.90;;;;;;5077241;28;20463;-80
2023/12/19 03:47:37;;;;;;;31.87;27.20;;;7.20;99.90;;;;;;5076145;28;20464;-81
2023/12/19 03:50:08;;;;;;;31.50;26.20;;;7.20;99.90;;;;;;5077600;28;20524;-80
2023/12/19 03:52:37;;;;;;;28.97;25.87;;;7.20;99.90;;;;;;5078884;28;20449;-82
2023/12/19 03:55:08;;;;;;;26.17;23.33;;;7.20;99.90;;;;;;5076637;28;20468;-82
2023/12/19 03:57:36;;;;;;;25.80;23.10;;;7.20;99.90;;;;;;5076994;28;20441;-81
2023/12/19 04:00:06;;;;;;;24.70;21.40;;;7.20;99.90;;;;;;5077058;28;20885;-81
2023/12/19 04:02:35;;;;;;;24.53;21.87;;;7.20;99.90;;;;;;5077041;28;20456;-80
2023/12/19 04:05:04;;;;;;;23.17;20.67;;;7.20;99.90;;;;;;5076628;28;20876;-82
2023/12/19 04:07:34;;;;;;;22.93;20.50;;;7.20;99.90;;;;;;5076924;28;20455;-81
2023/12/19 04:10:02;;;;;;;22.60;19.13;;;7.20;99.90;;;;;;5076959;28;20459;-80
2023/12/19 04:12:31;;;;;;;21.30;19.10;;;7.20;99.90;;;;;;5075896;28;20500;-81
2023/12/19 04:14:59;;;;;;;20.17;17.47;;;7.20;99.90;;;;;;5078558;28;20459;-81
2023/12/19 04:17:27;;;;;;;19.90;17.80;;;7.20;99.90;;;;;;5076130;28;20451;-80
2023/12/19 04:19:56;;;;;;;18.03;16.23;;;7.20;99.90;;;;;;5077598;28;20533;-79
2023/12/19 04:22:25;;;;;;;16.33;14.73;;;7.20;99.90;;;;;;5075714;28;20821;-80
2023/12/19 04:24:54;;;;;;;18.00;16.10;;;7.20;99.90;;;;;;5076433;28;20930;-80
2023/12/19 04:27:23;;;;;;;16.00;14.40;;;7.10;99.90;;;;;;5078553;28;20464;-80
2023/12/19 04:29:54;;;;;;;15.43;13.83;;;7.10;99.90;;;;;;5079399;28;20448;-80
2023/12/19 04:32:23;;;;;;;14.77;13.00;;;7.10;99.90;;;;;;5079087;28;20467;-81
2023/12/19 04:34:52;;;;;;;15.60;14.20;;;7.20;99.90;;;;;;5079217;28;20557;-81
2023/12/19 04:37:20;;;;;;;13.93;12.53;;;7.20;99.90;;;;;;5079966;28;20445;-81
2023/12/19 04:39:49;;;;;;;14.37;12.87;;;7.10;99.90;;;;;;5078709;28;20455;-80
2023/12/19 04:42:18;;;;;;;12.30;11.00;;;7.10;99.90;;;;;;5075986;28;20555;-80
2023/12/19 04:44:47;;;;;;;15.47;13.87;;;7.20;99.90;;;;;;5076588;28;20593;-80
2023/12/19 04:47:16;;;;;;;13.03;11.83;;;7.10;99.90;;;;;;5076868;28;20443;-81
2023/12/19 04:49:44;;;;;;;14.00;12.70;;;7.20;99.90;;;;;;5076199;28;20944;-80
2023/12/19 04:52:12;;;;;;;13.20;11.90;;;7.20;99.90;;;;;;5074951;28;20477;-81
2023/12/19 04:54:41;;;;;;;12.23;11.03;;;7.20;99.90;;;;;;5076070;28;20559;-80
2023/12/19 04:57:09;;;;;;;13.07;11.87;;;7.10;99.90;;;;;;5076914;28;20898;-80
2023/12/19 04:59:40;;;;;;;13.33;12.03;;;7.10;99.90;;;;;;5075624;28;20456;-80
2023/12/19 05:02:10;;;;;;;12.00;11.00;;;7.10;99.90;;;;;;5075206;28;20451;-80
2023/12/19 05:04:38;;;;;;;11.93;10.83;;;7.10;99.90;;;;;;5074961;28;20469;-79
2023/12/19 05:07:06;;;;;;;11.00;9.90;;;7.10;99.90;;;;;;5074743;28;20512;-80
2023/12/19 05:09:35;;;;;;;12.50;11.40;;;7.10;99.90;;;;;;5076693;28;20539;-80
2023/12/19 05:12:04;;;;;;;11.60;10.60;;;7.10;99.90;;;;;;5075437;28;20476;-81
2023/12/19 05:14:32;;;;;;;12.10;11.00;;;7.10;99.90;;;;;;5075084;28;20460;-81
2023/12/19 05:17:03;;;;;;;10.57;9.63;;;7.10;99.90;;;;;;5075431;28;20792;-80
2023/12/19 05:19:32;;;;;;;11.07;10.10;;;7.10;99.90;;;;;;5075042;28;20523;-80
2023/12/19 05:22:11;;;;;;;12.00;10.90;;;7.10;99.90;;;;;;5076918;28;20779;-79
2023/12/19 05:24:41;;;;;;;12.20;11.00;;;7.10;99.90;;;;;;5075311;28;20513;-80
2023/12/19 05:27:09;;;;;;;11.60;10.50;;;7.10;99.90;;;;;;5076378;28;20432;-79
2023/12/19 05:29:38;;;;;;;11.37;10.43;;;7.10;99.90;;;;;;5074369;28;20488;-80
2023/12/19 05:32:07;;;;;;;12.17;11.07;;;7.10;99.90;;;;;;5074825;28;20526;-81
2023/12/19 05:34:36;;;;;;;11.70;10.70;;;7.10;99.90;;;;;;5074544;28;20476;-81
2023/12/19 05:37:05;;;;;;;11.90;10.90;;;7.10;99.90;;;;;;5074609;28;20520;-80
2023/12/19 05:39:33;;;;;;;12.50;11.30;;;7.10;99.90;;;;;;5074768;28;20458;-82
2023/12/19 05:42:01;;;;;;;9.23;8.33;;;7.10;99.90;;;;;;5074578;28;20446;-81
2023/12/19 05:44:30;;;;;;;11.70;10.60;;;7.10;99.90;;;;;;5074435;28;20469;-81
2023/12/19 05:46:58;;;;;;;11.47;10.47;;;7.00;99.90;;;;;;5073972;28;20447;-81
2023/12/19 05:49:28;;;;;;;10.23;9.30;;;7.10;99.90;;;;;;5074046;28;20440;-80
2023/12/19 05:51:57;;;;;;;10.57;9.53;;;7.10;99.90;;;;;;5073593;28;20457;-81
2023/12/19 05:54:25;;;;;;;9.50;8.60;;;7.00;99.90;;;;;;5076933;28;20465;-81
2023/12/19 05:56:53;;;;;;;9.50;8.70;;;7.00;99.90;;;;;;5077878;28;20504;-82
2023/12/19 05:59:22;;;;;;;9.70;8.80;;;7.00;99.90;;;;;;5077497;28;20447;-81
2023/12/19 06:01:51;;;;;;;8.63;7.83;;;7.00;99.90;;;;;;5079072;28;20537;-82
2023/12/19 06:04:19;;;;;;;8.90;8.00;;;7.00;99.90;;;;;;5077608;28;20444;-80
2023/12/19 06:06:49;;;;;;;8.30;7.50;;;7.00;99.90;;;;;;5077698;28;20452;-80
2023/12/19 06:09:17;;;;;;;8.13;7.43;;;7.00;99.90;;;;;;5077458;28;20448;-82
2023/12/19 06:11:46;;;;;;;8.10;7.30;;;7.00;99.90;;;;;;5077390;28;20452;-80
2023/12/19 06:14:16;;;;;;;7.33;6.63;;;7.00;99.90;;;;;;5078922;28;20983;-81
2023/12/19 06:16:44;;;;;;;7.30;6.60;;;7.00;99.90;;;;;;5077453;28;20451;-80
2023/12/19 06:19:12;;;;;;;6.60;6.00;;;7.00;99.90;;;;;;5077367;28;20465;-79
2023/12/19 06:21:41;;;;;;;7.17;6.57;;;7.00;99.90;;;;;;5077371;28;20572;-80
2023/12/19 06:24:10;;;;;;;7.30;6.70;;;7.00;99.90;;;;;;5077553;28;20848;-80
2023/12/19 06:26:39;;;;;;;6.03;5.53;;;7.00;99.90;;;;;;5078544;28;20443;-80
2023/12/19 06:29:08;;;;;;;5.90;5.40;;;7.00;99.90;;;;;;5076783;28;20480;-81
2023/12/19 06:31:43;;;;;;;5.87;5.27;;;7.00;99.90;;;;;;5077252;28;20897;-81
2023/12/19 06:34:12;;;;;;;5.70;5.20;;;7.00;99.90;;;;;;5076567;28;20470;-80
2023/12/19 06:36:41;;;;;;;5.30;4.80;;;7.00;99.90;;;;;;5076782;28;20534;-81
2023/12/19 06:39:11;;;;;;;5.23;4.73;;;7.00;99.90;;;;;;5076830;28;20819;-81
2023/12/19 06:41:39;;;;;;;5.70;5.20;;;7.00;99.90;;;;;;5077234;28;20868;-81
2023/12/19 06:44:10;;;;;;;5.50;5.00;;;7.00;99.90;;;;;;5076769;28;20449;-81
2023/12/19 06:46:38;;;;;;;5.60;5.10;;;7.00;99.90;;;;;;5076396;28;20980;-80
2023/12/19 06:49:06;;;;;;;6.07;5.57;;;7.00;99.90;;;;;;5076855;28;20494;-82
2023/12/19 06:51:34;;;;;;;4.23;3.67;;;7.00;99.90;;;;;;5077708;28;20547;-82
2023/12/19 06:54:03;;;;;;;5.20;4.70;;;7.00;99.90;;;;;;5077800;28;20476;-83
2023/12/19 06:56:32;;;;;;;5.33;4.83;;;7.00;99.90;;;;;;5079412;28;20479;-82
2023/12/19 06:59:01;;;;;;;5.50;5.00;;;7.00;99.90;;;;;;5078753;28;20815;-82
2023/12/19 07:01:30;;;;;;;6.20;5.20;;;7.00;99.90;;;;;;5078763;28;20445;-82
2023/12/19 07:03:58;;;;;;;5.93;5.43;;;7.00;99.90;;;;;;5078267;28;20458;-80
2023/12/19 07:06:26;;;;;;;5.77;5.27;;;7.00;99.90;;;;;;5077931;28;20834;-81
2023/12/19 07:08:55;;;;;;;5.83;5.27;;;7.00;99.90;;;;;;5078322;28;20443;-82
2023/12/19 07:11:25;;;;;;;5.70;5.20;;;7.00;99.90;;;;;;5077871;28;20449;-81
2023/12/19 07:13:55;;;;;;;5.73;5.23;;;7.00;99.90;;;;;;5077431;28;20457;-80
2023/12/19 07:16:25;;;;;;;4.83;4.40;;;7.00;99.90;;;;;;5077378;28;20466;-80
2023/12/19 07:18:53;;;;;;;5.40;4.90;;;7.00;99.90;;;;;;5077865;28;20816;-81
2023/12/19 07:21:22;;;;;;;5.07;4.57;;;7.00;99.90;;;;;;5077614;28;20448;-81
2023/12/19 07:23:51;;;;;;;4.40;4.00;;;7.00;99.90;;;;;;5078703;28;20436;-81
2023/12/19 07:26:21;;;;;;;4.83;4.43;;;7.00;99.90;;;;;;5077419;28;20472;-80
2023/12/19 07:28:51;;;;;;;4.63;4.23;;;7.00;99.90;;;;;;5078241;28;20853;-81
2023/12/19 07:31:22;;;;;;;4.80;4.40;;;7.00;99.90;;;;;;5079292;28;20478;-80
2023/12/19 07:33:52;;;;;;;4.80;4.40;;;7.00;99.90;;;;;;5078416;28;20460;-81
2023/12/19 07:36:21;;;;;;;5.80;5.00;;;7.10;99.90;;;;;;5078493;28;20460;-81
2023/12/19 07:38:49;;;;;;;6.33;5.73;;;7.00;99.90;;;;;;5077520;28;20506;-80
2023/12/19 07:41:17;;;;;;;6.23;5.63;;;7.00;99.90;;;;;;5077229;28;20812;-82
2023/12/19 07:43:46;;;;;;;6.37;5.87;;;7.10;99.90;;;;;;5076210;28;20502;-81
2023/12/19 07:46:14;;;;;;;6.30;5.80;;;7.10;99.90;;;;;;5076279;28;20483;-81
2023/12/19 07:48:44;;;;;;;6.50;5.90;;;7.00;99.90;;;;;;5078493;28;20463;-81
2023/12/19 07:51:17;;;;;;;5.70;5.20;;;7.00;99.90;;;;;;5077670;28;20463;-80
2023/12/19 07:53:45;;;;;;;6.40;5.90;;;7.10;99.90;;;;;;5076599;28;20536;-81
2023/12/19 07:56:13;;;;;;;6.43;5.93;;;7.00;99.90;;;;;;5076104;28;20464;-81
2023/12/19 07:58:43;;;;;;;7.00;6.40;;;7.00;99.90;;;;;;5076305;28;20544;-81
2023/12/19 08:01:12;;;;;;;6.60;6.00;;;7.10;99.90;;;;;;5076325;28;20547;-81
2023/12/19 08:03:44;;;;;;;6.10;5.60;;;7.10;99.90;;;;;;5076636;28;20441;-80
2023/12/19 08:06:13;;;;;;;7.10;6.40;;;7.10;99.90;;;;;;5077914;28;21108;-80
2023/12/19 08:08:42;;;;;;;6.13;5.63;;;7.10;99.90;;;;;;5075772;28;20443;-82
2023/12/19 08:11:12;;;;;;;6.20;5.70;;;7.10;99.90;;;;;;5077260;28;20923;-81
2023/12/19 08:13:40;;;;;;;6.67;6.07;;;7.10;99.90;;;;;;5075537;28;20492;-82
2023/12/19 08:16:08;;;;;;;6.67;6.07;;;7.10;99.90;;;;;;5074859;28;20897;-82
2023/12/19 08:18:37;;;;;;;7.10;6.50;;;7.10;99.90;;;;;;5075135;28;20815;-81
2023/12/19 08:21:08;;;;;;;7.53;6.93;;;7.10;99.90;;;;;;5075377;28;20830;-82
2023/12/19 08:23:36;;;;;;;7.30;6.70;;;7.10;99.90;;;;;;5075477;28;20443;-81
2023/12/19 08:26:09;;;;;;;7.60;6.90;;;7.10;99.90;;;;;;5074680;28;20464;-82
2023/12/19 08:28:38;;;;;;;6.30;5.80;;;7.10;99.90;;;;;;5076738;28;20533;-81
2023/12/19 08:31:07;;;;;;;6.60;6.00;;;7.10;99.90;;;;;;5074120;28;20483;-80
2023/12/19 08:33:36;;;;;;;6.63;6.03;;;7.10;99.90;;;;;;5074775;28;20472;-81
2023/12/19 08:36:08;;;;;;;7.10;6.50;;;7.10;99.90;;;;;;5074544;28;20498;-82
2023/12/19 08:38:56;;;;;;;6.97;6.43;;;7.10;99.90;;;;;;5074559;28;20445;-79
2023/12/19 08:41:24;;;;;;;6.80;6.20;;;7.10;99.90;;;;;;5074519;28;20452;-80
2023/12/19 08:43:53;;;;;;;7.07;6.47;;;7.10;99.90;;;;;;5074776;28;20456;-78
2023/12/19 08:46:21;;;;;;;6.50;5.90;;;7.10;99.90;;;;;;5073828;28;20479;-79
2023/12/19 08:48:50;;;;;;;7.10;6.40;;;7.10;99.90;;;;;;5074309;28;20478;-79
2023/12/19 08:51:20;;;;;;;7.40;6.70;;;7.20;99.90;;;;;;5074380;28;20444;-79
2023/12/19 08:53:48;;;;;;;6.93;6.33;;;7.20;99.90;;;;;;5074908;28;20515;-81
2023/12/19 08:56:17;;;;;;;7.50;6.70;;;7.20;99.90;;;;;;5075895;28;20477;-76
2023/12/19 08:58:48;;;;;;;7.20;6.50;;;7.20;99.90;;;;;;5075205;28;20441;-81
2023/12/19 09:01:17;;;;;;;7.77;7.07;;;7.20;99.90;;;;;;5074634;28;20534;-82
2023/12/19 09:03:46;;;;;;;7.90;7.27;;;7.20;99.90;;;;;;5074512;28;20517;-79
2023/12/19 09:06:14;;;;;;;8.73;8.00;;;7.20;99.90;;;;;;5074091;28;20563;-81
2023/12/19 09:08:44;;;;;;;9.07;8.27;;;7.20;99.90;;;;;;5073829;28;20892;-79
2023/12/19 09:11:12;;;;;;;9.57;8.67;;;7.20;99.90;;;;;;5073972;28;20444;-80
2023/12/19 09:13:40;;;;;;;9.10;8.30;;;7.20;99.90;;;;;;5074106;28;20551;-80
2023/12/19 09:16:09;;;;;;;9.60;8.80;;;7.20;99.90;;;;;;5074319;28;20490;-78
2023/12/19 09:18:37;;;;;;;8.63;7.80;;;7.20;99.90;;;;;;5076455;28;20444;-82
2023/12/19 09:21:07;;;;;;;9.57;8.77;;;7.20;99.90;;;;;;5074207;28;20932;-82
2023/12/19 09:23:35;;;;;;;9.70;8.80;;;7.20;99.90;;;;;;5074541;28;20546;-82
2023/12/19 09:26:09;;;;;;;9.33;8.53;;;7.30;99.90;;;;;;5073707;28;20482;-80
2023/12/19 09:28:38;;;;;;;9.00;8.30;;;7.30;99.90;;;;;;5075822;28;20482;-81
2023/12/19 09:31:08;;;;;;;9.67;8.87;;;7.30;99.90;;;;;;5077749;28;20447;-81
2023/12/19 09:33:38;;;;;;;9.23;8.43;;;7.30;99.90;;;;;;5077826;28;20501;-82
2023/12/19 09:36:08;;;;;;;10.10;9.20;;;7.30;99.90;;;;;;5078773;28;20514;-82
2023/12/19 09:38:37;;;;;;;8.93;8.23;;;7.30;99.90;;;;;;5077534;28;20944;-82
2023/12/19 09:41:05;;;;;;;8.37;7.67;;;7.30;99.90;;;;;;5077445;28;20457;-81
2023/12/19 09:43:34;;;;;;;8.63;7.83;;;7.30;99.90;;;;;;5077332;28;21040;-78
2023/12/19 09:46:03;;;;;;;8.23;7.50;;;7.30;99.90;;;;;;5078170;28;20479;-81
2023/12/19 09:48:33;;;;;;;8.03;7.33;;;7.40;99.90;;;;;;5077754;28;20813;-81
2023/12/19 09:51:06;;;;;;;7.83;7.20;;;7.40;99.90;;;;;;5077312;28;20479;-83
2023/12/19 09:53:36;;;;;;;7.67;7.00;;;7.40;99.90;;;;;;5077185;28;20441;-83
2023/12/19 09:56:09;;;;;;;7.90;7.30;;;7.40;99.90;;;;;;5078643;28;20478;-82
2023/12/19 09:58:40;;;;;;;7.93;7.20;;;7.40;99.90;;;;;;5077003;28;20448;-81
2023/12/19 10:01:09;;;;;;;7.70;7.00;;;7.40;99.90;;;;;;5077144;28;20451;-82
2023/12/19 10:03:38;;;;;;;7.67;7.07;;;7.40;99.90;;;;;;5080176;28;20443;-82
2023/12/19 10:06:07;;;;;;;7.53;6.83;;;7.40;99.90;;;;;;5080120;28;20459;-81
2023/12/19 10:08:36;;;;;;;6.80;6.30;;;7.40;99.90;;;;;;5078826;28;20946;-82
2023/12/19 10:11:07;;;;;;;7.27;6.67;;;7.40;99.90;;;;;;5079073;28;20865;-82
2023/12/19 10:13:38;;;;;;;6.60;6.10;;;7.50;99.90;;;;;;5079597;28;20459;-81
2023/12/19 10:16:09;;;;;;;6.93;6.43;;;7.50;99.90;;;;;;5078954;28;20505;-81
2023/12/19 10:18:57;;;;;;;6.80;6.30;;;7.50;99.90;;;;;;5078587;28;20434;-82
2023/12/19 10:21:28;;;;;;;6.07;5.57;;;7.50;99.90;;;;;;5078472;28;20838;-82
2023/12/19 10:24:08;;;;;;;6.60;6.10;;;7.50;99.90;;;;;;5078882;28;20437;-82
2023/12/19 10:26:37;;;;;;;5.77;5.30;;;7.50;99.90;;;;;;5079087;28;20448;-80
2023/12/19 10:29:06;;;;;;;6.33;5.70;;;7.50;99.90;;;;;;5079294;28;20474;-81
2023/12/19 10:31:35;;;;;;;5.53;5.03;;;7.50;99.90;;;;;;5090063;28;20453;-80
2023/12/19 10:34:05;;;;;;;6.30;5.80;;;7.50;99.90;;;;;;5092771;28;20499;-81
2023/12/19 10:36:35;;;;;;;6.27;5.77;;;7.50;99.90;;;;;;5092980;28;20522;-82
2023/12/19 10:39:05;;;;;;;5.67;5.20;;;7.60;99.90;;;;;;5090762;28;20440;-80
2023/12/19 10:41:37;;;;;;;6.00;5.40;;;7.60;99.90;;;;;;5088168;28;20445;-81
2023/12/19 10:44:10;;;;;;;6.17;5.67;;;7.60;99.90;;;;;;5079861;28;20450;-82
2023/12/19 10:46:39;;;;;;;6.27;5.77;;;7.60;99.90;;;;;;5078504;28;20464;-81
2023/12/19 10:49:07;;;;;;;6.27;5.77;;;7.60;99.90;;;;;;5078584;28;20452;-81
2023/12/19 10:51:41;;;;;;;6.20;5.63;;;7.60;99.90;;;;;;5078717;28;20440;-82
2023/12/19 10:54:12;;;;;;;6.53;5.93;;;7.60;99.90;;;;;;5076881;28;20470;-82
2023/12/19 10:56:53;;;;;;;6.50;5.90;;;7.60;99.90;;;;;;5077210;28;20471;-81
2023/12/19 10:59:31;;;;;;;6.50;6.00;;;7.60;99.90;;;;;;5076688;28;20437;-80
2023/12/19 11:02:10;;;;;;;7.47;6.87;;;7.60;99.90;;;;;;5076853;28;20447;-81
2023/12/19 11:04:41;;;;;;;7.37;6.77;;;7.70;99.90;;;;;;5076981;28;20565;-82
2023/12/19 11:07:13;;;;;;;7.40;6.73;;;7.70;99.90;;;;;;5076420;28;20463;-81
2023/12/19 11:09:47;;;;;;;8.47;7.70;;;7.70;99.90;;;;;;5076299;28;20436;-80
2023/12/19 11:12:16;;;;;;;7.40;6.80;;;7.70;99.90;;;;;;5076335;28;20509;-81
2023/12/19 11:14:46;;;;;;;6.97;6.37;;;7.70;99.90;;;;;;5077740;28;20464;-80
2023/12/19 11:17:18;;;;;;;7.97;7.23;;;7.70;99.90;;;;;;5075771;28;20452;-80
2023/12/19 11:19:52;;;;;;;8.03;7.33;;;7.70;99.90;;;;;;5076748;28;20452;-81
2023/12/19 11:22:27;;;;;;;8.90;8.10;;;7.70;99.90;;;;;;5076977;28;20502;-81
2023/12/19 11:25:03;;;;;;;8.43;7.73;;;7.70;99.90;;;;;;5076378;28;20480;-81
2023/12/19 11:27:38;;;;;;;9.37;8.57;;;7.80;99.90;;;;;;5077564;28;20444;-82
2023/12/19 11:30:32;;;;;;;9.07;8.27;;;7.80;99.90;;;;;;5077742;28;20515;-82
2023/12/19 11:33:01;;;;;;;9.67;8.77;;;7.80;99.90;;;;;;5077014;28;20439;-81
2023/12/19 11:35:31;;;;;;;9.60;8.70;;;7.80;99.90;;;;;;5075594;28;21043;-81
2023/12/19 11:38:25;;;;;;;9.67;8.80;;;7.80;99.90;;;;;;5076132;28;20453;-81
2023/12/19 11:40:56;;;;;;;9.93;9.10;;;7.80;99.90;;;;;;5075865;28;20519;-82
2023/12/19 11:43:57;;;;;;;10.67;9.70;;;7.80;99.90;;;;;;5075418;28;20549;-80
2023/12/19 11:46:27;;;;;;;11.00;10.00;;;7.80;99.90;;;;;;5075101;28;20532;-80
2023/12/19 11:48:59;;;;;;;10.80;9.90;;;7.80;99.90;;;;;;5077015;28;20784;-81
2023/12/19 11:51:50;;;;;;;10.50;9.60;;;7.90;99.90;;;;;;5075031;28;20487;-80
2023/12/19 11:54:20;;;;;;;11.20;10.20;;;7.90;99.90;;;;;;5074979;28;20803;-80
2023/12/19 11:56:59;;;;;;;11.37;10.37;;;7.90;99.90;;;;;;5075353;28;20473;-81
2023/12/19 11:59:49;;;;;;;11.27;10.27;;;7.90;99.90;;;;;;5075253;28;20436;-81
2023/12/19 12:02:33;;;;;;;11.97;10.77;;;7.90;99.90;;;;;;5075485;28;20436;-82
2023/12/19 12:05:13;;;;;;;11.33;10.23;;;7.90;99.90;;;;;;5075131;28;20890;-82
2023/12/19 12:07:47;;;;;;;11.93;10.90;;;8.00;99.90;;;;;;5074957;28;20452;-81
2023/12/19 12:10:18;;;;;;;14.50;13.00;;;8.00;99.90;;;;;;5074844;28;20441;-81
2023/12/19 12:12:47;;;;;;;12.53;11.43;;;8.00;99.90;;;;;;5075147;28;20445;-81
2023/12/19 12:15:19;;;;;;;11.20;10.20;;;8.00;99.90;;;;;;5075749;28;20474;-82
2023/12/19 12:17:48;;;;;;;13.23;11.80;;;8.00;99.90;;;;;;5075286;28;20471;-81
2023/12/19 12:20:24;;;;;;;14.37;13.03;;;8.00;99.90;;;;;;5075048;28;20502;-82
2023/12/19 12:22:54;;;;;;;12.80;11.63;;;8.00;99.90;;;;;;5076233;28;20922;-81
2023/12/19 12:25:23;;;;;;;12.70;11.60;;;8.00;99.90;;;;;;5076001;28;20531;-81
2023/12/19 12:28:07;;;;;;;13.30;12.10;;;8.10;99.90;;;;;;5075827;28;20445;-80
2023/12/19 12:30:36;;;;;;;13.60;12.40;;;8.10;99.90;;;;;;5075629;28;20540;-82
2023/12/19 12:33:06;;;;;;;13.67;12.40;;;8.10;99.90;;;;;;5075311;28;20444;-81
2023/12/19 12:35:36;;;;;;;13.30;12.10;;;8.10;99.90;;;;;;5076727;28;20842;-81
2023/12/19 12:38:07;;;;;;;15.13;13.83;;;8.10;99.90;;;;;;5075534;28;20619;-81
2023/12/19 12:40:36;;;;;;;14.57;13.27;;;8.10;99.90;;;;;;5076606;28;20429;-80
2023/12/19 12:43:34;;;;;;;15.23;13.83;;;8.10;99.90;;;;;;5075194;28;20497;-80
2023/12/19 12:46:08;;;;;;;14.57;13.17;;;8.20;99.90;;;;;;5075331;28;20477;-82
2023/12/19 12:48:40;;;;;;;15.10;13.70;;;8.20;99.90;;;;;;5076148;28;20426;-81
2023/12/19 12:51:09;;;;;;;15.10;13.63;;;8.20;99.90;;;;;;5075606;28;20495;-81
2023/12/19 12:53:38;;;;;;;14.00;12.80;;;8.20;99.90;;;;;;5076219;28;20429;-80
2023/12/19 12:56:11;;;;;;;12.87;11.67;;;8.20;99.90;;;;;;5073621;28;20497;-81
2023/12/19 12:58:40;;;;;;;14.30;13.00;;;8.20;99.90;;;;;;5074110;28;20452;-82
2023/12/19 13:01:10;;;;;;;14.17;12.80;;;8.20;99.90;;;;;;5074267;28;20463;-81